Time;durP1;ratioP1;P1;durP2;ratioP2;P2;SDS_P1;SDS_P2;PMS_P1;PMS_P2;Temp;Humidity;BMP_temperature;BMP_pressure;BME280_temperature;BME280_humidity;BME280_pressure;Samples;Min_cycle;Max_cycle;Signal;HPM_P1;HPM_P2
2021/09/15 00:00:22;;;;;;;15.00;8.00;;;;;;;19.69;89.88;100781.53;4995884;28;20089;-65
2021/09/15 00:02:49;;;;;;;17.08;8.13;;;;;;;19.67;90.05;100781.59;5005684;28;20123;-65
2021/09/15 00:05:17;;;;;;;11.27;7.55;;;;;;;19.70;90.30;100783.25;4995641;28;20042;-65
2021/09/15 00:07:43;;;;;;;10.80;7.38;;;;;;;19.73;90.24;100783.03;5003985;28;20061;-65
2021/09/15 00:10:11;;;;;;;13.73;7.68;;;;;;;19.74;90.33;100776.81;4999507;28;20535;-66
2021/09/15 00:12:37;;;;;;;15.05;8.48;;;;;;;19.73;90.27;100770.72;5006301;28;20053;-64
2021/09/15 00:15:05;;;;;;;14.25;8.45;;;;;;;19.75;90.38;100773.25;4996939;28;20054;-65
2021/09/15 00:17:31;;;;;;;11.82;7.68;;;;;;;19.76;90.47;100774.97;5009191;28;20042;-65
2021/09/15 00:19:57;;;;;;;13.00;7.82;;;;;;;19.77;90.47;100776.66;5004455;28;20049;-65
2021/09/15 00:22:25;;;;;;;11.40;7.47;;;;;;;19.79;90.56;100779.19;4996955;28;20058;-65
2021/09/15 00:24:52;;;;;;;14.88;7.78;;;;;;;19.78;90.60;100777.50;5000929;28;20038;-65
2021/09/15 00:27:18;;;;;;;11.70;7.57;;;;;;;19.79;90.63;100777.44;4996858;28;20133;-64
2021/09/15 00:29:45;;;;;;;13.20;8.30;;;;;;;19.80;90.42;100771.22;5004682;28;20050;-64
2021/09/15 00:32:11;;;;;;;11.90;7.75;;;;;;;19.80;90.42;100773.00;5000361;28;20547;-66
2021/09/15 00:34:37;;;;;;;17.90;9.15;;;;;;;19.81;90.46;100772.91;5002190;28;20107;-65
2021/09/15 00:37:04;;;;;;;11.07;7.30;;;;;;;19.79;90.60;100772.16;5003662;28;20046;-65
2021/09/15 00:39:32;;;;;;;11.45;7.55;;;;;;;19.80;90.32;100765.94;5004643;28;20069;-65
2021/09/15 00:41:58;;;;;;;13.93;8.10;;;;;;;19.80;90.67;100765.06;5008198;28;20060;-65
2021/09/15 00:44:24;;;;;;;12.55;8.20;;;;;;;19.80;90.75;100767.72;5001076;28;20046;-65
2021/09/15 00:46:51;;;;;;;13.07;8.15;;;;;;;19.79;90.89;100772.16;5001357;28;23392;-65
2021/09/15 00:49:18;;;;;;;12.73;9.18;;;;;;;19.80;91.10;100765.06;4998606;28;20564;-65
2021/09/15 00:51:45;;;;;;;11.55;8.30;;;;;;;19.81;91.21;100761.50;4997878;28;20096;-65
2021/09/15 00:54:15;;;;;;;11.30;7.88;;;;;;;19.80;91.19;100759.78;5001764;28;20057;-65
2021/09/15 00:56:43;;;;;;;13.45;8.02;;;;;;;19.80;91.25;100758.03;5002662;28;20068;-65
2021/09/15 00:59:09;;;;;;;13.63;7.32;;;;;;;19.81;91.26;100757.09;4999237;28;20045;-64
2021/09/15 01:01:36;;;;;;;12.10;8.50;;;;;;;19.81;91.36;100754.44;5000150;28;20400;-65
2021/09/15 01:04:03;;;;;;;14.90;8.35;;;;;;;19.80;91.47;100752.75;4996820;28;20061;-64
2021/09/15 01:06:31;;;;;;;12.90;8.27;;;;;;;19.80;91.67;100749.22;5005905;28;20076;-65
2021/09/15 01:08:59;;;;;;;14.45;8.73;;;;;;;19.80;91.57;100749.22;5001843;23;20046;-66
2021/09/15 01:11:27;;;;;;;12.70;8.32;;;;;;;19.77;91.78;100742.34;4992441;28;20042;-66
2021/09/15 01:13:55;;;;;;;15.52;9.10;;;;;;;19.78;91.76;100745.81;4995964;28;20042;-66
2021/09/15 01:16:22;;;;;;;10.32;8.02;;;;;;;19.80;91.76;100747.47;4990694;28;20550;-65
2021/09/15 01:18:49;;;;;;;17.75;9.43;;;;;;;19.77;91.91;100742.34;4997326;28;20056;-66
2021/09/15 01:21:16;;;;;;;14.13;8.93;;;;;;;19.76;91.98;100748.56;4991949;28;20149;-66
2021/09/15 01:23:43;;;;;;;10.57;8.18;;;;;;;19.76;92.17;100747.72;4995975;28;20073;-65
2021/09/15 01:26:09;;;;;;;11.52;8.60;;;;;;;19.76;92.27;100743.28;4992267;28;20042;-61
2021/09/15 01:28:36;;;;;;;12.77;9.27;;;;;;;19.76;92.22;100748.56;4993407;28;20050;-66
2021/09/15 01:31:02;;;;;;;16.15;9.05;;;;;;;19.74;92.43;100750.44;4992674;28;20101;-65
2021/09/15 01:33:29;;;;;;;12.77;9.60;;;;;;;19.73;92.51;100738.19;4989809;28;20046;-65
2021/09/15 01:35:55;;;;;;;12.52;8.82;;;;;;;19.72;92.54;100742.63;4993071;28;20061;-64
2021/09/15 01:38:23;;;;;;;15.27;9.30;;;;;;;19.70;92.65;100739.22;4991341;28;20575;-67
2021/09/15 01:40:49;;;;;;;16.20;9.07;;;;;;;19.71;92.65;100729.53;5000992;28;20077;-65
2021/09/15 01:43:17;;;;;;;16.27;8.88;;;;;;;19.71;92.72;100726.88;5001377;28;20092;-65
2021/09/15 01:45:43;;;;;;;15.32;9.35;;;;;;;19.72;92.64;100721.50;4993765;28;20046;-64
2021/09/15 01:48:10;;;;;;;13.48;9.65;;;;;;;19.73;92.74;100714.44;4992629;28;20053;-67
2021/09/15 01:50:36;;;;;;;13.50;9.48;;;;;;;19.73;92.79;100711.78;5001442;28;20057;-65
2021/09/15 01:53:03;;;;;;;15.05;9.65;;;;;;;19.73;92.68;100710.00;4990901;28;20046;-65
2021/09/15 01:55:30;;;;;;;14.18;9.73;;;;;;;19.73;92.88;100706.50;4999595;28;20116;-64
2021/09/15 01:57:57;;;;;;;15.90;8.98;;;;;;;19.71;92.99;100703.13;4993904;28;20052;-65
2021/09/15 02:00:24;;;;;;;13.68;9.23;;;;;;;19.70;93.03;100699.63;4993856;28;20061;-66
2021/09/15 02:02:52;;;;;;;15.38;9.80;;;;;;;19.67;93.20;100691.03;4995925;28;20062;-66
2021/09/15 02:05:19;;;;;;;18.30;11.40;;;;;;;19.65;93.31;100695.56;4992393;28;20042;-65
2021/09/15 02:07:46;;;;;;;12.25;9.18;;;;;;;19.65;93.44;100690.28;5002314;28;20046;-66
2021/09/15 02:10:13;;;;;;;17.17;9.82;;;;;;;19.64;93.58;100676.25;4991012;28;20104;-65
2021/09/15 02:12:41;;;;;;;16.90;10.68;;;;;;;19.63;93.62;100682.47;5001645;28;20054;-65
2021/09/15 02:15:10;;;;;;;15.70;9.45;;;;;;;19.62;93.77;100671.97;4997445;28;20112;-65
2021/09/15 02:17:37;;;;;;;13.60;9.75;;;;;;;19.63;93.80;100673.69;4998764;28;20053;-65
2021/09/15 02:20:05;;;;;;;13.43;9.68;;;;;;;19.64;93.76;100670.97;5003612;28;20055;-65
2021/09/15 02:22:31;;;;;;;13.15;10.38;;;;;;;19.65;93.90;100666.53;4997798;28;20046;-66
2021/09/15 02:24:58;;;;;;;15.15;10.02;;;;;;;19.63;94.04;100668.41;5002281;28;20499;-66
2021/09/15 02:27:24;;;;;;;14.10;9.98;;;;;;;19.62;94.17;100667.56;4998790;28;20046;-67
2021/09/15 02:29:52;;;;;;;14.82;10.18;;;;;;;19.62;94.08;100672.84;4996575;28;20405;-66
2021/09/15 02:32:18;;;;;;;15.20;10.38;;;;;;;19.61;94.35;100670.31;4994606;28;20504;-66
2021/09/15 02:34:47;;;;;;;14.73;9.90;;;;;;;19.61;94.33;100675.59;4998638;28;20058;-66
2021/09/15 02:37:13;;;;;;;14.75;10.13;;;;;;;19.61;94.59;100667.66;4997358;28;20054;-66
2021/09/15 02:39:40;;;;;;;14.05;10.15;;;;;;;19.60;94.60;100666.81;4999738;28;20465;-66
2021/09/15 02:42:06;;;;;;;15.65;10.15;;;;;;;19.62;94.50;100671.97;5001005;28;20046;-65
2021/09/15 02:44:33;;;;;;;18.90;10.85;;;;;;;19.58;94.73;100669.53;5006539;28;20053;-64
2021/09/15 02:47:01;;;;;;;18.27;11.05;;;;;;;19.59;94.90;100662.47;4999783;28;20072;-66
2021/09/15 02:49:28;;;;;;;18.08;10.93;;;;;;;19.58;94.91;100668.66;5005556;28;20057;-66
2021/09/15 02:51:55;;;;;;;18.88;11.27;;;;;;;19.57;95.08;100670.47;4998501;28;20053;-66
2021/09/15 02:54:21;;;;;;;14.25;10.25;;;;;;;19.55;95.34;100667.06;5001392;28;20062;-67
2021/09/15 02:56:48;;;;;;;15.43;10.95;;;;;;;19.54;95.55;100675.91;5000183;28;20480;-66
2021/09/15 02:59:14;;;;;;;18.73;10.88;;;;;;;19.54;95.71;100673.28;5001388;28;20493;-66
2021/09/15 03:01:41;;;;;;;15.77;10.88;;;;;;;19.55;95.72;100671.50;4991217;28;20177;-66
2021/09/15 03:04:09;;;;;;;14.65;10.63;;;;;;;19.54;95.98;100673.28;4999160;28;20049;-66
2021/09/15 03:06:35;;;;;;;17.33;11.13;;;;;;;19.55;96.23;100667.06;5004143;28;20046;-66
2021/09/15 03:09:02;;;;;;;15.32;10.82;;;;;;;19.54;96.52;100670.63;4992167;28;20054;-67
2021/09/15 03:11:28;;;;;;;20.10;10.82;;;;;;;19.55;96.67;100668.88;5000605;28;20523;-65
2021/09/15 03:13:54;;;;;;;18.20;10.70;;;;;;;19.56;96.78;100662.66;4991153;28;20057;-66
2021/09/15 03:16:24;;;;;;;14.98;11.02;;;;;;;19.56;96.94;100662.66;5001067;28;20100;-67
2021/09/15 03:18:51;;;;;;;13.52;11.40;;;;;;;19.55;97.12;100671.50;4992927;28;20053;-66
2021/09/15 03:21:19;;;;;;;16.45;11.68;;;;;;;19.53;97.09;100673.38;4999541;28;20054;-66
2021/09/15 03:23:45;;;;;;;13.65;11.30;;;;;;;19.50;97.17;100665.63;4997251;28;20053;-65
2021/09/15 03:26:12;;;;;;;18.30;11.32;;;;;;;19.48;97.33;100673.66;4991564;28;20067;-65
2021/09/15 03:28:38;;;;;;;16.17;11.32;;;;;;;19.53;97.36;100676.03;4995934;28;20050;-67
2021/09/15 03:31:05;;;;;;;15.60;11.95;;;;;;;19.52;97.32;100679.59;4997688;28;21911;-66
2021/09/15 03:33:31;;;;;;;16.30;11.55;;;;;;;19.51;97.23;100686.66;4998936;28;20042;-65
2021/09/15 03:35:57;;;;;;;20.65;12.02;;;;;;;19.53;97.24;100682.13;4992500;28;20408;-64
2021/09/15 03:38:25;;;;;;;16.10;12.35;;;;;;;19.53;97.42;100683.94;4999079;28;20415;-66
2021/09/15 03:40:52;;;;;;;18.67;12.35;;;;;;;19.54;97.17;100675.91;4997228;28;20058;-66
2021/09/15 03:43:18;;;;;;;16.67;12.80;;;;;;;19.54;97.41;100670.63;4996396;28;20057;-66
2021/09/15 03:45:44;;;;;;;17.95;12.25;;;;;;;19.53;97.49;100668.94;4996203;28;20042;-65
2021/09/15 03:48:11;;;;;;;20.08;12.98;;;;;;;19.53;97.48;100663.66;4997209;28;20181;-66
2021/09/15 03:50:37;;;;;;;17.20;12.27;;;;;;;19.51;97.72;100662.94;5002647;28;20054;-67
2021/09/15 03:53:04;;;;;;;14.25;11.90;;;;;;;19.51;97.75;100657.66;5007556;28;20061;-66
2021/09/15 03:55:31;;;;;;;17.70;12.63;;;;;;;19.49;97.75;100653.38;5003801;28;20042;-67
2021/09/15 03:57:58;;;;;;;17.35;13.25;;;;;;;19.46;97.89;100649.13;4992314;28;20058;-64
2021/09/15 04:00:24;;;;;;;17.20;12.35;;;;;;;19.48;98.12;100646.41;5001628;28;20054;-65
2021/09/15 04:02:51;;;;;;;18.00;12.77;;;;;;;19.46;98.24;100649.13;4999241;28;20053;-64
2021/09/15 04:05:17;;;;;;;17.35;12.50;;;;;;;19.46;98.29;100643.88;5003262;28;20058;-66
2021/09/15 04:07:44;;;;;;;17.75;12.20;;;;;;;19.45;98.30;100639.53;4993552;28;20120;-65
2021/09/15 04:10:11;;;;;;;16.73;11.70;;;;;;;19.43;98.50;100649.31;4997569;28;20053;-66
2021/09/15 04:12:39;;;;;;;18.58;12.57;;;;;;;19.42;98.42;100644.97;4991789;28;20053;-66
2021/09/15 04:15:06;;;;;;;16.52;12.45;;;;;;;19.44;98.66;100647.53;5005152;28;20431;-66
2021/09/15 04:17:33;;;;;;;19.45;12.10;;;;;;;19.43;98.40;100641.41;5007349;28;20094;-66
2021/09/15 04:19:59;;;;;;;18.05;13.63;;;;;;;19.42;98.42;100647.59;5004832;28;20046;-65
2021/09/15 04:22:26;;;;;;;19.20;12.73;;;;;;;19.42;98.39;100640.56;5004246;28;20175;-66
2021/09/15 04:33:05;;;;;;;20.23;13.38;;;;;;;19.41;98.49;100638.84;4992845;28;20052;-67
2021/09/15 04:35:31;;;;;;;19.10;12.82;;;;;;;19.37;98.93;100634.69;4994795;28;20057;-67
2021/09/15 04:37:57;;;;;;;20.52;13.13;;;;;;;19.38;99.28;100640.81;4993597;28;20517;-67
2021/09/15 04:40:24;;;;;;;17.65;13.60;;;;;;;19.34;99.52;100641.94;4994684;28;20085;-66
2021/09/15 04:42:50;;;;;;;21.20;14.10;;;;;;;19.31;99.88;100634.22;4999375;28;20050;-67
2021/09/15 04:45:17;;;;;;;16.65;12.45;;;;;;;19.28;100.00;100640.50;4999087;28;20042;-67
2021/09/15 04:47:44;;;;;;;15.55;12.60;;;;;;;19.32;100.00;100633.25;5003946;28;20515;-68
2021/09/15 04:50:11;;;;;;;18.08;13.80;;;;;;;19.32;100.00;100633.25;5004144;28;20530;-67
2021/09/15 04:52:37;;;;;;;19.10;13.65;;;;;;;19.30;100.00;100636.00;4996706;28;20050;-67
2021/09/15 04:55:05;;;;;;;19.98;13.52;;;;;;;19.29;100.00;100641.34;4991403;28;20046;-67
2021/09/15 04:57:31;;;;;;;20.60;14.23;;;;;;;19.31;100.00;100642.13;4993873;28;20043;-68
2021/09/15 04:59:57;;;;;;;21.38;13.63;;;;;;;19.29;100.00;100644.84;5000697;28;20046;-68
2021/09/15 05:02:24;;;;;;;26.63;15.18;;;;;;;19.30;100.00;100645.69;5000376;28;20054;-67
2021/09/15 05:04:52;;;;;;;19.38;14.90;;;;;;;19.34;100.00;100642.78;5001877;28;20046;-67
2021/09/15 05:07:18;;;;;;;29.30;15.73;;;;;;;19.35;100.00;100641.00;5005179;28;20100;-67
2021/09/15 05:09:44;;;;;;;23.75;16.45;;;;;;;19.33;100.00;100629.69;4998250;28;20432;-67
2021/09/15 05:12:11;;;;;;;20.98;15.65;;;;;;;19.30;100.00;100629.88;4995850;28;20512;-67
2021/09/15 05:14:37;;;;;;;19.70;14.50;;;;;;;19.29;100.00;100633.44;5007598;28;20065;-68
2021/09/15 05:17:04;;;;;;;22.92;16.40;;;;;;;19.26;100.00;100630.03;5004408;28;20729;-67
2021/09/15 05:19:30;;;;;;;21.73;15.77;;;;;;;19.21;100.00;100621.56;5005646;28;20518;-68
2021/09/15 05:21:58;;;;;;;23.85;16.23;;;;;;;19.13;100.00;100617.66;5007832;28;20495;-69
2021/09/15 05:24:24;;;;;;;22.70;15.82;;;;;;;19.05;100.00;100626.84;5004171;28;20520;-68
2021/09/15 05:26:51;;;;;;;22.52;16.38;;;;;;;19.04;100.00;100624.28;5000569;28;20095;-67
2021/09/15 05:29:17;;;;;;;25.60;17.00;;;;;;;19.02;100.00;100618.25;4998999;28;20054;-68
2021/09/15 05:31:44;;;;;;;22.27;17.38;;;;;;;19.02;100.00;100623.53;5005343;28;20392;-67
2021/09/15 05:34:10;;;;;;;28.35;16.92;;;;;;;19.05;100.00;100616.31;4999949;28;20049;-68
2021/09/15 05:36:37;;;;;;;25.98;16.27;;;;;;;19.07;100.00;100630.22;5001521;28;20043;-66
2021/09/15 05:39:05;;;;;;;23.90;17.27;;;;;;;19.08;100.00;100646.91;4999766;28;20443;-68
2021/09/15 05:41:31;;;;;;;29.13;18.00;;;;;;;19.07;100.00;100646.06;5004496;28;20041;-68
2021/09/15 05:43:57;;;;;;;26.08;17.05;;;;;;;19.05;100.00;100645.31;5000882;28;20057;-68
2021/09/15 05:46:24;;;;;;;33.38;18.95;;;;;;;18.99;100.00;100644.81;4998775;28;20053;-67
2021/09/15 05:48:50;;;;;;;26.42;17.27;;;;;;;18.97;100.00;100654.56;5003700;28;20119;-67
2021/09/15 05:51:17;;;;;;;23.63;17.67;;;;;;;18.89;100.00;100657.59;5002107;28;20058;-68
2021/09/15 05:53:43;;;;;;;22.55;17.60;;;;;;;18.85;100.00;100651.66;5010116;28;20049;-69
2021/09/15 05:56:11;;;;;;;24.08;17.70;;;;;;;18.76;100.00;100631.09;5002606;28;20046;-69
2021/09/15 05:58:37;;;;;;;25.65;17.98;;;;;;;18.67;100.00;100634.22;5008077;28;20077;-70
2021/09/15 06:01:06;;;;;;;24.90;18.58;;;;;;;18.67;100.00;100642.13;5013518;28;20050;-68
2021/09/15 06:03:32;;;;;;;20.98;16.52;;;;;;;18.70;100.00;100642.81;5004864;28;20050;-69
2021/09/15 06:05:59;;;;;;;24.90;18.08;;;;;;;18.72;100.00;100640.94;4999353;28;20077;-69
2021/09/15 06:08:25;;;;;;;20.23;16.50;;;;;;;18.75;100.00;100635.50;4999767;28;20065;-70
2021/09/15 06:10:52;;;;;;;24.05;17.90;;;;;;;18.79;100.00;100633.56;5002440;28;20447;-71
2021/09/15 06:13:19;;;;;;;20.10;15.52;;;;;;;18.70;100.00;100632.25;5001047;28;20056;-69
2021/09/15 06:15:46;;;;;;;23.38;16.42;;;;;;;18.65;100.00;100627.25;4995538;28;20050;-68
2021/09/15 06:18:12;;;;;;;21.40;16.95;;;;;;;18.65;100.00;100637.78;5009472;28;20052;-69
2021/09/15 06:20:39;;;;;;;21.98;15.65;;;;;;;18.66;100.00;100633.38;4999912;28;20065;-70
2021/09/15 06:23:05;;;;;;;26.38;16.58;;;;;;;18.67;100.00;100640.31;5011340;28;20492;-69
2021/09/15 06:25:32;;;;;;;21.55;16.80;;;;;;;18.63;100.00;100631.75;5005877;28;20066;-69
2021/09/15 06:27:59;;;;;;;30.35;18.95;;;;;;;18.60;100.00;100633.72;5000157;28;20060;-69
2021/09/15 06:30:26;;;;;;;21.85;17.35;;;;;;;18.63;100.00;100625.66;4995985;28;20074;-69
2021/09/15 06:32:53;;;;;;;24.17;18.02;;;;;;;18.64;100.00;100625.56;5001597;28;20069;-69
2021/09/15 06:35:19;;;;;;;22.60;17.42;;;;;;;18.63;100.00;100621.22;5002082;28;20556;-68
2021/09/15 06:37:46;;;;;;;26.70;17.60;;;;;;;18.71;100.00;100623.44;4996467;28;20535;-68
2021/09/15 06:40:13;;;;;;;22.52;17.05;;;;;;;18.74;100.00;100625.03;4994612;28;20041;-70
2021/09/15 06:42:39;;;;;;;22.77;16.83;;;;;;;18.85;100.00;100633.19;4989781;28;20621;-69
2021/09/15 06:45:07;;;;;;;25.98;17.23;;;;;;;18.88;100.00;100629.53;4999866;28;20050;-69
2021/09/15 06:47:42;;;;;;;22.67;16.92;;;;;;;18.90;100.00;100627.69;4991717;28;20046;-69
2021/09/15 06:50:08;;;;;;;;;;;;;;;18.95;100.00;100636.22;4994294;28;20050;-69
2021/09/15 06:52:35;;;;;;;24.17;17.63;;;;;;;18.96;100.00;100635.28;4992613;28;19976;-69
2021/09/15 06:55:01;;;;;;;23.67;17.50;;;;;;;18.93;100.00;100636.28;5000714;28;20511;-70
2021/09/15 06:57:28;;;;;;;25.02;18.98;;;;;;;18.90;100.00;100638.22;4996563;28;20049;-70
2021/09/15 06:59:54;;;;;;;24.55;17.83;;;;;;;18.92;100.00;100634.56;4998613;28;20054;-69
2021/09/15 07:02:21;;;;;;;22.08;17.65;;;;;;;18.88;100.00;100630.41;4990090;28;20069;-69
2021/09/15 07:04:48;;;;;;;25.13;17.50;;;;;;;18.91;100.00;100630.25;5001847;28;20053;-68
2021/09/15 07:07:15;;;;;;;23.30;17.73;;;;;;;18.93;100.00;100628.38;4993010;28;20057;-69
2021/09/15 07:09:41;;;;;;;21.08;17.52;;;;;;;18.93;100.00;100628.38;5002663;28;20517;-69
2021/09/15 07:12:08;;;;;;;23.45;16.92;;;;;;;18.96;100.00;100635.28;4995253;28;20058;-69
2021/09/15 07:14:35;;;;;;;21.75;16.50;;;;;;;19.03;100.00;100635.75;4998339;28;20108;-69
2021/09/15 07:17:01;;;;;;;21.10;16.27;;;;;;;19.04;100.00;100637.47;4993876;28;20053;-69
2021/09/15 07:19:28;;;;;;;19.30;14.50;;;;;;;19.03;100.00;100638.41;5008369;28;20054;-69
2021/09/15 07:21:55;;;;;;;20.67;14.43;;;;;;;19.05;100.00;100637.41;4998139;28;20051;-69
2021/09/15 07:24:22;;;;;;;18.35;14.95;;;;;;;19.09;100.00;100633.63;4992110;28;20516;-69
2021/09/15 07:26:48;;;;;;;24.13;15.65;;;;;;;19.11;100.00;100634.41;4994732;28;20062;-69
2021/09/15 07:29:15;;;;;;;20.50;14.73;;;;;;;19.14;100.00;100628.09;5000263;28;20415;-69
2021/09/15 07:31:42;;;;;;;22.13;15.77;;;;;;;19.13;100.00;100626.41;4997012;28;20055;-70
2021/09/15 07:34:09;;;;;;;21.02;14.35;;;;;;;19.14;100.00;100630.75;5007306;28;20058;-70
2021/09/15 07:36:36;;;;;;;18.48;14.00;;;;;;;19.16;100.00;100635.94;4999530;28;20046;-69
2021/09/15 07:39:04;;;;;;;18.67;12.63;;;;;;;19.17;100.00;100642.88;4995007;28;20057;-69
2021/09/15 07:41:31;;;;;;;19.80;13.13;;;;;;;19.09;100.00;100636.28;4999403;28;20049;-70
2021/09/15 07:43:57;;;;;;;17.23;12.55;;;;;;;19.11;100.00;100631.78;4998415;28;20058;-70
2021/09/15 07:46:24;;;;;;;15.77;13.07;;;;;;;19.07;100.00;100637.31;5008355;28;20050;-69
2021/09/15 07:48:50;;;;;;;16.73;12.82;;;;;;;19.06;100.00;100627.69;5000468;28;20046;-68
2021/09/15 07:51:17;;;;;;;15.68;11.18;;;;;;;19.06;100.00;100627.69;5003156;28;20042;-68
2021/09/15 07:53:44;;;;;;;15.75;11.60;;;;;;;19.06;100.00;100638.25;5000057;28;20061;-69
2021/09/15 07:56:12;;;;;;;18.52;12.32;;;;;;;19.06;100.00;100632.97;5003238;28;20046;-69
2021/09/15 07:58:38;;;;;;;16.38;11.05;;;;;;;19.08;100.00;100633.75;4999831;28;20054;-70
2021/09/15 08:01:05;;;;;;;16.70;10.88;;;;;;;19.15;100.00;100632.44;5002345;28;20053;-70
2021/09/15 08:03:32;;;;;;;16.20;10.80;;;;;;;19.16;100.00;100634.16;5004954;28;20054;-70
2021/09/15 08:06:00;;;;;;;13.50;9.88;;;;;;;19.18;100.00;100640.19;5001333;28;20049;-69
2021/09/15 08:08:26;;;;;;;13.93;10.32;;;;;;;19.19;100.00;100647.16;4997893;28;20500;-70
2021/09/15 08:10:53;;;;;;;17.52;10.27;;;;;;;19.16;100.00;100644.69;5005939;28;20057;-70
2021/09/15 08:13:24;;;;;;;18.00;11.18;;;;;;;19.18;100.00;100648.09;5008874;28;20045;-69
2021/09/15 08:15:50;;;;;;;15.98;11.20;;;;;;;19.19;100.00;100636.63;5000830;28;20478;-70
2021/09/15 08:18:17;;;;;;;14.77;11.00;;;;;;;19.19;100.00;100641.03;5002680;28;20042;-69
2021/09/15 08:20:45;;;;;;;15.68;11.48;;;;;;;19.20;100.00;100650.63;5007098;28;20052;-70
2021/09/15 08:23:12;;;;;;;16.10;11.35;;;;;;;19.21;100.00;100652.34;4999206;28;20163;-69
2021/09/15 08:25:38;;;;;;;15.77;10.82;;;;;;;19.17;100.00;100648.16;5000592;28;20749;-70
2021/09/15 08:28:06;;;;;;;16.42;10.50;;;;;;;19.13;100.00;100657.19;5001770;28;20042;-70
2021/09/15 08:30:34;;;;;;;17.13;11.32;;;;;;;19.03;100.00;100647.19;5007860;28;20041;-70
2021/09/15 08:33:00;;;;;;;14.93;11.98;;;;;;;19.02;100.00;100648.09;5002635;28;20100;-70
2021/09/15 08:35:27;;;;;;;16.00;11.45;;;;;;;19.04;100.00;100643.59;5001659;28;20046;-70
2021/09/15 08:37:54;;;;;;;15.68;11.07;;;;;;;19.03;100.00;100646.31;5000964;28;20081;-71
2021/09/15 08:40:20;;;;;;;14.55;9.95;;;;;;;19.02;100.00;100648.09;5007115;28;20054;-70
2021/09/15 08:42:47;;;;;;;15.13;9.73;;;;;;;19.05;100.00;100645.31;5002224;28;20499;-70
2021/09/15 08:45:14;;;;;;;13.40;9.90;;;;;;;19.08;100.00;100646.91;4999268;28;20058;-70
2021/09/15 08:47:44;;;;;;;10.57;8.40;;;;;;;19.12;100.00;100653.69;5002546;28;20053;-71
2021/09/15 08:50:13;;;;;;;12.43;9.05;;;;;;;19.13;100.00;100655.41;4997217;28;20054;-68
2021/09/15 08:52:40;;;;;;;11.77;8.98;;;;;;;19.14;100.00;100658.91;4996828;28;20056;-70
2021/09/15 08:55:08;;;;;;;10.00;7.45;;;;;;;19.15;100.00;100663.25;4989698;28;20053;-70
2021/09/15 08:57:35;;;;;;;9.77;7.18;;;;;;;19.13;100.00;100668.59;4997083;28;20061;-71
2021/09/15 09:00:01;;;;;;;9.02;7.03;;;;;;;19.17;100.00;100662.22;4996387;28;20057;-69
2021/09/15 09:02:35;;;;;;;8.80;6.30;;;;;;;19.18;100.00;100663.91;4995581;28;20050;-69
2021/09/15 09:05:03;;;;;;;8.05;5.82;;;;;;;19.22;100.00;100657.50;5000358;28;20089;-70
2021/09/15 09:07:31;;;;;;;8.80;5.80;;;;;;;19.29;100.00;100659.81;4991444;28;20053;-70
2021/09/15 09:10:00;;;;;;;7.95;5.35;;;;;;;19.31;100.00;100660.59;4998905;28;20052;-71
2021/09/15 09:12:29;;;;;;;6.88;3.80;;;;;;;19.35;100.00;100649.78;5003160;28;20050;-70
2021/09/15 09:15:11;;;;;;;7.38;3.83;;;;;;;19.36;100.00;100645.34;5007825;28;20050;-70
2021/09/15 09:17:38;;;;;;;6.93;4.07;;;;;;;19.43;100.00;100641.41;5000076;28;20049;-71
2021/09/15 09:20:18;;;;;;;5.65;4.00;;;;;;;19.54;100.00;100643.44;5006331;28;20069;-70
2021/09/15 09:23:02;;;;;;;5.82;4.10;;;;;;;19.68;100.00;100635.53;4998273;28;20420;-69
2021/09/15 09:25:30;;;;;;;5.20;3.55;;;;;;;19.90;100.00;100634.28;5001833;28;20556;-70
2021/09/15 09:27:57;;;;;;;4.70;2.92;;;;;;;20.09;100.00;100634.03;5007990;28;20049;-70
2021/09/15 09:30:35;;;;;;;4.18;2.10;;;;;;;20.25;100.00;100638.34;5008220;28;20053;-70
2021/09/15 09:33:02;;;;;;;3.70;2.17;;;;;;;20.40;100.00;100642.72;5003619;28;20163;-70
2021/09/15 09:35:42;;;;;;;4.70;2.20;;;;;;;20.51;100.00;100640.22;5000369;28;20058;-70
2021/09/15 09:38:29;;;;;;;4.22;2.10;;;;;;;20.64;100.00;100656.16;4998574;28;20046;-70
2021/09/15 09:41:02;;;;;;;3.78;2.10;;;;;;;20.71;100.00;100661.94;5007111;28;20054;-70
2021/09/15 09:43:30;;;;;;;4.13;2.15;;;;;;;20.73;100.00;100660.00;5006348;28;20053;-70
2021/09/15 09:45:57;;;;;;;2.60;1.30;;;;;;;20.72;99.16;100658.31;5001266;28;20057;-70
2021/09/15 09:48:34;;;;;;;3.00;1.85;;;;;;;20.61;98.64;100661.63;5007897;28;20053;-70
2021/09/15 09:51:04;;;;;;;3.05;1.67;;;;;;;20.54;99.54;100670.03;5003211;28;20504;-70
2021/09/15 09:53:32;;;;;;;4.38;1.70;;;;;;;20.42;100.00;100667.22;5003800;28;20054;-69
2021/09/15 09:55:59;;;;;;;3.83;1.98;;;;;;;20.33;100.00;100663.38;5003238;28;20058;-70
2021/09/15 09:58:28;;;;;;;4.75;2.10;;;;;;;20.29;100.00;100666.28;5002446;28;20043;-70
2021/09/15 10:00:56;;;;;;;4.43;2.40;;;;;;;20.21;100.00;100672.03;5000499;28;20049;-69
2021/09/15 10:03:23;;;;;;;5.32;2.60;;;;;;;20.16;100.00;100674.13;5009649;28;20069;-70
2021/09/15 10:05:50;;;;;;;4.80;2.92;;;;;;;20.10;100.00;100666.56;5005395;28;20066;-70
2021/09/15 10:08:20;;;;;;;6.45;2.90;;;;;;;20.12;100.00;100669.94;4992534;28;23768;-70
2021/09/15 10:10:49;;;;;;;5.57;3.30;;;;;;;20.13;100.00;100666.38;4999807;28;20140;-71
2021/09/15 10:13:16;;;;;;;6.32;3.42;;;;;;;20.15;100.00;100670.63;5000756;28;20568;-70
2021/09/15 10:15:46;;;;;;;6.40;3.75;;;;;;;20.18;100.00;100674.84;5005555;28;20559;-69
2021/09/15 10:18:14;;;;;;;5.70;4.18;;;;;;;20.24;100.00;100668.34;5006691;28;20046;-70
2021/09/15 10:20:46;;;;;;;5.60;4.63;;;;;;;20.28;100.00;100669.88;5006343;28;20070;-70
2021/09/15 10:23:36;;;;;;;7.93;4.60;;;;;;;20.28;100.00;100669.88;4996559;28;20073;-69
2021/09/15 10:26:26;;;;;;;6.88;4.97;;;;;;;20.26;100.00;100671.75;4997295;28;20136;-69
2021/09/15 10:29:24;;;;;;;9.10;6.78;;;;;;;20.32;100.00;100684.56;5008254;28;20500;-70
2021/09/15 10:31:57;;;;;;;8.18;6.68;;;;;;;20.37;100.00;100682.50;4998887;28;20050;-71
2021/09/15 10:34:49;;;;;;;11.07;8.00;;;;;;;20.49;100.00;100673.84;5005211;28;20092;-70
2021/09/15 10:37:53;;;;;;;11.15;7.78;;;;;;;20.56;100.00;100679.59;5006544;28;20078;-69
2021/09/15 10:40:45;;;;;;;9.77;7.88;;;;;;;20.67;100.00;100685.03;4996258;28;20053;-70
2021/09/15 10:43:41;;;;;;;9.13;7.80;;;;;;;20.75;100.00;100679.31;4996828;28;20046;-69
2021/09/15 10:46:22;;;;;;;10.13;7.90;;;;;;;20.76;100.00;100677.53;5003236;28;20053;-70
2021/09/15 10:49:16;;;;;;;9.05;6.80;;;;;;;20.78;99.89;100678.25;4992547;28;20105;-70
2021/09/15 10:51:43;;;;;;;8.77;7.22;;;;;;;20.79;100.00;100685.25;5000271;28;20404;-68
2021/09/15 10:54:40;;;;;;;10.40;7.90;;;;;;;20.84;99.33;100675.25;5006829;28;20050;-70
2021/09/15 10:57:15;;;;;;;9.60;7.22;;;;;;;20.67;98.93;100677.09;4991622;28;20705;-70
2021/09/15 10:59:49;;;;;;;10.55;7.43;;;;;;;20.71;98.85;100677.78;4999847;28;20053;-69
2021/09/15 11:02:24;;;;;;;10.10;7.13;;;;;;;20.72;99.07;100682.09;4995860;28;20054;-70
2021/09/15 11:04:51;;;;;;;9.73;7.30;;;;;;;20.71;99.30;100684.84;4997584;28;20504;-70
2021/09/15 11:07:50;;;;;;;9.52;7.65;;;;;;;20.70;99.59;100686.66;5009368;28;20091;-69
2021/09/15 11:10:38;;;;;;;9.55;7.80;;;;;;;20.69;99.96;100684.94;4994481;28;20058;-69
2021/09/15 11:13:08;;;;;;;9.50;8.15;;;;;;;20.68;99.47;100685.91;5001293;28;20081;-69
2021/09/15 11:15:36;;;;;;;11.43;9.02;;;;;;;20.67;99.07;100681.56;4997203;28;20049;-69
2021/09/15 11:18:03;;;;;;;11.65;9.90;;;;;;;20.56;99.12;100694.59;5005090;28;20042;-69
2021/09/15 11:20:32;;;;;;;10.82;9.73;;;;;;;20.50;100.00;100693.16;4994165;28;20057;-68
2021/09/15 11:23:04;;;;;;;12.45;9.52;;;;;;;20.51;100.00;100697.50;4999457;28;20459;-69